sensor_id;sensor_type;location;lat;lon;timestamp;temperature;humidity
23685;DHT22;12020;51.384;6.908;2023-04-01T00:01:08;10.60;99.90
23685;DHT22;12020;51.384;6.908;2023-04-01T00:03:35;10.60;99.90
23685;DHT22;12020;51.384;6.908;2023-04-01T00:06:03;10.60;99.90
23685;DHT22;12020;51.384;6.908;2023-04-01T00:08:29;10.60;99.90
23685;DHT22;12020;51.384;6.908;2023-04-01T00:10:55;10.60;99.90
23685;DHT22;12020;51.384;6.908;2023-04-01T00:13:24;10.60;99.90
23685;DHT22;12020;51.384;6.908;2023-04-01T00:15:51;10.60;99.90
23685;DHT22;12020;51.384;6.908;2023-04-01T00:18:17;10.60;99.90
23685;DHT22;12020;51.384;6.908;2023-04-01T00:20:45;10.60;99.90
23685;DHT22;12020;51.384;6.908;2023-04-01T00:23:14;10.60;99.90
23685;DHT22;12020;51.384;6.908;2023-04-01T00:25:44;10.60;99.90
23685;DHT22;12020;51.384;6.908;2023-04-01T00:28:12;10.60;99.90
23685;DHT22;12020;51.384;6.908;2023-04-01T00:30:39;10.60;99.90
23685;DHT22;12020;51.384;6.908;2023-04-01T00:33:05;10.60;99.90
23685;DHT22;12020;51.384;6.908;2023-04-01T00:35:31;10.60;99.90
23685;DHT22;12020;51.384;6.908;2023-04-01T00:37:58;10.60;99.90
23685;DHT22;12020;51.384;6.908;2023-04-01T00:40:33;10.60;99.90
23685;DHT22;12020;51.384;6.908;2023-04-01T00:42:59;10.60;99.90
23685;DHT22;12020;51.384;6.908;2023-04-01T00:45:33;10.60;99.90
23685;DHT22;12020;51.384;6.908;2023-04-01T00:48:04;10.50;99.90
23685;DHT22;12020;51.384;6.908;2023-04-01T00:50:33;10.50;99.90
23685;DHT22;12020;51.384;6.908;2023-04-01T00:53:01;10.50;99.90
23685;DHT22;12020;51.384;6.908;2023-04-01T00:55:30;10.50;99.90
23685;DHT22;12020;51.384;6.908;2023-04-01T00:57:58;10.50;99.90
23685;DHT22;12020;51.384;6.908;2023-04-01T01:00:25;10.50;99.90
23685;DHT22;12020;51.384;6.908;2023-04-01T01:02:52;10.50;99.90
23685;DHT22;12020;51.384;6.908;2023-04-01T01:05:25;10.50;99.90
23685;DHT22;12020;51.384;6.908;2023-04-01T01:08:03;10.50;99.90
23685;DHT22;12020;51.384;6.908;2023-04-01T01:10:34;10.50;99.90
23685;DHT22;12020;51.384;6.908;2023-04-01T01:13:25;10.50;99.90
23685;DHT22;12020;51.384;6.908;2023-04-01T01:35:38;10.50;99.90
23685;DHT22;12020;51.384;6.908;2023-04-01T01:38:09;10.40;99.90
23685;DHT22;12020;51.384;6.908;2023-04-01T01:40:39;10.40;99.90
23685;DHT22;12020;51.384;6.908;2023-04-01T01:43:11;10.40;99.90
23685;DHT22;12020;51.384;6.908;2023-04-01T01:45:45;10.40;99.90
23685;DHT22;12020;51.384;6.908;2023-04-01T01:48:13;10.50;99.90
23685;DHT22;12020;51.384;6.908;2023-04-01T01:50:40;10.50;99.90
23685;DHT22;12020;51.384;6.908;2023-04-01T01:53:09;10.50;99.90
23685;DHT22;12020;51.384;6.908;2023-04-01T01:55:41;10.50;99.90
23685;DHT22;12020;51.384;6.908;2023-04-01T01:58:25;10.40;99.90
23685;DHT22;12020;51.384;6.908;2023-04-01T02:01:01;10.50;99.90
23685;DHT22;12020;51.384;6.908;2023-04-01T02:03:31;10.40;99.90
23685;DHT22;12020;51.384;6.908;2023-04-01T02:06:04;10.40;99.90
23685;DHT22;12020;51.384;6.908;2023-04-01T02:08:49;10.40;99.90
23685;DHT22;12020;51.384;6.908;2023-04-01T02:11:18;10.40;99.90
23685;DHT22;12020;51.384;6.908;2023-04-01T02:13:52;10.40;99.90
23685;DHT22;12020;51.384;6.908;2023-04-01T02:16:36;10.40;99.90
23685;DHT22;12020;51.384;6.908;2023-04-01T02:19:04;10.40;99.90
23685;DHT22;12020;51.384;6.908;2023-04-01T02:21:33;10.40;99.90
23685;DHT22;12020;51.384;6.908;2023-04-01T02:24:02;10.30;99.90
23685;DHT22;12020;51.384;6.908;2023-04-01T02:26:30;10.40;99.90
23685;DHT22;12020;51.384;6.908;2023-04-01T02:28:59;10.30;99.90
23685;DHT22;12020;51.384;6.908;2023-04-01T02:31:25;10.40;99.90
23685;DHT22;12020;51.384;6.908;2023-04-01T02:33:53;10.30;99.90
23685;DHT22;12020;51.384;6.908;2023-04-01T02:36:22;10.30;99.90
23685;DHT22;12020;51.384;6.908;2023-04-01T02:38:48;10.30;99.90
23685;DHT22;12020;51.384;6.908;2023-04-01T02:41:17;10.30;99.90
23685;DHT22;12020;51.384;6.908;2023-04-01T02:43:47;10.30;99.90
23685;DHT22;12020;51.384;6.908;2023-04-01T02:46:13;10.30;99.90
23685;DHT22;12020;51.384;6.908;2023-04-01T02:48:40;10.30;99.90
23685;DHT22;12020;51.384;6.908;2023-04-01T02:51:06;10.30;99.90
23685;DHT22;12020;51.384;6.908;2023-04-01T02:53:32;10.30;99.90
23685;DHT22;12020;51.384;6.908;2023-04-01T02:55:58;10.30;99.90
23685;DHT22;12020;51.384;6.908;2023-04-01T02:58:23;10.20;99.90
23685;DHT22;12020;51.384;6.908;2023-04-01T03:00:49;10.20;99.90
23685;DHT22;12020;51.384;6.908;2023-04-01T03:03:16;10.20;99.90
23685;DHT22;12020;51.384;6.908;2023-04-01T03:05:42;10.20;99.90
23685;DHT22;12020;51.384;6.908;2023-04-01T03:08:08;10.20;99.90
23685;DHT22;12020;51.384;6.908;2023-04-01T03:10:34;10.20;99.90
23685;DHT22;12020;51.384;6.908;2023-04-01T03:13:00;10.30;99.90
23685;DHT22;12020;51.384;6.908;2023-04-01T03:15:28;10.20;99.90
23685;DHT22;12020;51.384;6.908;2023-04-01T03:17:54;10.20;99.90
23685;DHT22;12020;51.384;6.908;2023-04-01T03:20:21;10.20;99.90
23685;DHT22;12020;51.384;6.908;2023-04-01T03:22:47;10.20;99.90
23685;DHT22;12020;51.384;6.908;2023-04-01T03:25:14;10.30;99.90
23685;DHT22;12020;51.384;6.908;2023-04-01T03:27:41;10.30;99.90
23685;DHT22;12020;51.384;6.908;2023-04-01T03:30:07;10.30;99.90
23685;DHT22;12020;51.384;6.908;2023-04-01T03:32:33;10.30;99.90
23685;DHT22;12020;51.384;6.908;2023-04-01T03:35:01;10.30;99.90
23685;DHT22;12020;51.384;6.908;2023-04-01T03:37:27;10.30;99.90
23685;DHT22;12020;51.384;6.908;2023-04-01T03:39:54;10.30;99.90
23685;DHT22;12020;51.384;6.908;2023-04-01T03:42:20;10.20;99.90
23685;DHT22;12020;51.384;6.908;2023-04-01T03:44:47;10.20;99.90
23685;DHT22;12020;51.384;6.908;2023-04-01T03:47:13;10.20;99.90
23685;DHT22;12020;51.384;6.908;2023-04-01T03:49:39;10.20;99.90
23685;DHT22;12020;51.384;6.908;2023-04-01T03:52:09;10.20;99.90
23685;DHT22;12020;51.384;6.908;2023-04-01T03:54:36;10.30;99.90
23685;DHT22;12020;51.384;6.908;2023-04-01T03:57:03;10.30;99.90
23685;DHT22;12020;51.384;6.908;2023-04-01T03:59:28;10.30;99.90
23685;DHT22;12020;51.384;6.908;2023-04-01T04:01:55;10.30;99.90
23685;DHT22;12020;51.384;6.908;2023-04-01T04:04:21;10.30;99.90
23685;DHT22;12020;51.384;6.908;2023-04-01T04:06:49;10.20;99.90
23685;DHT22;12020;51.384;6.908;2023-04-01T04:09:16;10.20;99.90
23685;DHT22;12020;51.384;6.908;2023-04-01T04:11:49;10.20;99.90
23685;DHT22;12020;51.384;6.908;2023-04-01T04:14:15;10.20;99.90
23685;DHT22;12020;51.384;6.908;2023-04-01T04:16:42;10.20;99.90
23685;DHT22;12020;51.384;6.908;2023-04-01T04:19:09;10.30;99.90
23685;DHT22;12020;51.384;6.908;2023-04-01T04:21:36;10.20;99.90
23685;DHT22;12020;51.384;6.908;2023-04-01T04:24:02;10.20;99.90
23685;DHT22;12020;51.384;6.908;2023-04-01T04:26:28;10.20;99.90
23685;DHT22;12020;51.384;6.908;2023-04-01T04:28:57;10.20;99.90
23685;DHT22;12020;51.384;6.908;2023-04-01T04:31:26;10.20;99.90
23685;DHT22;12020;51.384;6.908;2023-04-01T04:33:52;10.30;99.90
23685;DHT22;12020;51.384;6.908;2023-04-01T04:36:21;10.20;99.90
23685;DHT22;12020;51.384;6.908;2023-04-01T04:38:48;10.30;99.90
23685;DHT22;12020;51.384;6.908;2023-04-01T04:41:16;10.30;99.90
23685;DHT22;12020;51.384;6.908;2023-04-01T04:43:50;10.30;99.90
23685;DHT22;12020;51.384;6.908;2023-04-01T04:46:16;10.30;99.90
23685;DHT22;12020;51.384;6.908;2023-04-01T04:48:42;10.30;99.90
23685;DHT22;12020;51.384;6.908;2023-04-01T04:51:13;10.30;99.90
23685;DHT22;12020;51.384;6.908;2023-04-01T04:53:40;10.20;99.90
23685;DHT22;12020;51.384;6.908;2023-04-01T04:56:11;10.20;99.90
23685;DHT22;12020;51.384;6.908;2023-04-01T04:58:43;10.20;99.90
23685;DHT22;12020;51.384;6.908;2023-04-01T05:01:13;10.20;99.90
23685;DHT22;12020;51.384;6.908;2023-04-01T05:03:40;10.20;99.90
23685;DHT22;12020;51.384;6.908;2023-04-01T05:06:09;10.20;99.90
23685;DHT22;12020;51.384;6.908;2023-04-01T05:08:36;10.20;99.90
23685;DHT22;12020;51.384;6.908;2023-04-01T05:11:02;10.20;99.90
23685;DHT22;12020;51.384;6.908;2023-04-01T05:13:32;10.20;99.90
23685;DHT22;12020;51.384;6.908;2023-04-01T05:15:58;10.20;99.90
23685;DHT22;12020;51.384;6.908;2023-04-01T05:18:24;10.20;99.90
23685;DHT22;12020;51.384;6.908;2023-04-01T05:20:53;10.20;99.90
23685;DHT22;12020;51.384;6.908;2023-04-01T05:23:22;10.20;99.90
23685;DHT22;12020;51.384;6.908;2023-04-01T05:25:49;10.20;99.90
23685;DHT22;12020;51.384;6.908;2023-04-01T05:28:17;10.20;99.90
23685;DHT22;12020;51.384;6.908;2023-04-01T05:30:43;10.20;99.90
23685;DHT22;12020;51.384;6.908;2023-04-01T05:33:11;10.20;99.90
23685;DHT22;12020;51.384;6.908;2023-04-01T05:35:39;10.20;99.90
23685;DHT22;12020;51.384;6.908;2023-04-01T05:38:06;10.20;99.90
23685;DHT22;12020;51.384;6.908;2023-04-01T05:40:32;10.30;99.90
23685;DHT22;12020;51.384;6.908;2023-04-01T05:42:58;10.20;99.90
23685;DHT22;12020;51.384;6.908;2023-04-01T05:45:25;10.20;99.90
23685;DHT22;12020;51.384;6.908;2023-04-01T05:47:52;10.20;99.90
23685;DHT22;12020;51.384;6.908;2023-04-01T05:50:19;10.20;99.90
23685;DHT22;12020;51.384;6.908;2023-04-01T05:52:45;10.20;99.90
23685;DHT22;12020;51.384;6.908;2023-04-01T05:55:14;10.20;99.90
23685;DHT22;12020;51.384;6.908;2023-04-01T05:57:40;10.20;99.90
23685;DHT22;12020;51.384;6.908;2023-04-01T06:00:06;10.20;99.90
23685;DHT22;12020;51.384;6.908;2023-04-01T06:02:33;10.20;99.90
23685;DHT22;12020;51.384;6.908;2023-04-01T06:05:17;10.20;99.90
23685;DHT22;12020;51.384;6.908;2023-04-01T06:07:44;10.20;99.90
23685;DHT22;12020;51.384;6.908;2023-04-01T06:10:19;10.20;99.90
23685;DHT22;12020;51.384;6.908;2023-04-01T06:15:53;10.20;99.90
23685;DHT22;12020;51.384;6.908;2023-04-01T06:29:57;10.30;99.90
23685;DHT22;12020;51.384;6.908;2023-04-01T06:35:17;10.30;99.90
23685;DHT22;12020;51.384;6.908;2023-04-01T06:38:06;10.30;99.90
23685;DHT22;12020;51.384;6.908;2023-04-01T06:43:37;10.40;99.90
23685;DHT22;12020;51.384;6.908;2023-04-01T06:48:45;10.40;99.90
23685;DHT22;12020;51.384;6.908;2023-04-01T06:54:42;10.40;99.90
23685;DHT22;12020;51.384;6.908;2023-04-01T06:57:32;10.40;99.90
23685;DHT22;12020;51.384;6.908;2023-04-01T07:03:21;10.40;99.90
23685;DHT22;12020;51.384;6.908;2023-04-01T07:05:49;10.40;99.90
23685;DHT22;12020;51.384;6.908;2023-04-01T07:08:23;10.30;99.90
23685;DHT22;12020;51.384;6.908;2023-04-01T07:10:55;10.40;99.90
23685;DHT22;12020;51.384;6.908;2023-04-01T07:13:45;10.30;99.90
23685;DHT22;12020;51.384;6.908;2023-04-01T07:16:27;10.40;99.90
23685;DHT22;12020;51.384;6.908;2023-04-01T07:21:40;10.40;99.90
23685;DHT22;12020;51.384;6.908;2023-04-01T07:24:22;10.40;99.90
23685;DHT22;12020;51.384;6.908;2023-04-01T07:26:54;10.40;99.90
23685;DHT22;12020;51.384;6.908;2023-04-01T07:29:21;10.50;99.90
23685;DHT22;12020;51.384;6.908;2023-04-01T07:34:35;10.40;99.90
23685;DHT22;12020;51.384;6.908;2023-04-01T07:37:12;10.30;99.90
23685;DHT22;12020;51.384;6.908;2023-04-01T07:42:36;10.40;99.90
23685;DHT22;12020;51.384;6.908;2023-04-01T07:50:59;10.40;99.90
23685;DHT22;12020;51.384;6.908;2023-04-01T07:59:23;10.40;99.90
23685;DHT22;12020;51.384;6.908;2023-04-01T08:05:21;10.40;99.90
23685;DHT22;12020;51.384;6.908;2023-04-01T08:07:49;10.40;99.90
23685;DHT22;12020;51.384;6.908;2023-04-01T08:10:45;10.40;99.90
23685;DHT22;12020;51.384;6.908;2023-04-01T08:22:07;10.50;99.90
23685;DHT22;12020;51.384;6.908;2023-04-01T08:24:44;10.50;99.90
23685;DHT22;12020;51.384;6.908;2023-04-01T08:35:46;10.50;99.90
23685;DHT22;12020;51.384;6.908;2023-04-01T08:38:24;10.50;99.90
23685;DHT22;12020;51.384;6.908;2023-04-01T08:40:57;10.50;99.90
23685;DHT22;12020;51.384;6.908;2023-04-01T08:49:17;10.50;99.90
23685;DHT22;12020;51.384;6.908;2023-04-01T08:54:56;10.50;99.90
23685;DHT22;12020;51.384;6.908;2023-04-01T09:00:31;10.50;99.90
23685;DHT22;12020;51.384;6.908;2023-04-01T09:11:31;10.60;99.90
23685;DHT22;12020;51.384;6.908;2023-04-01T09:30:33;10.50;99.90
23685;DHT22;12020;51.384;6.908;2023-04-01T09:36:38;10.60;99.90
23685;DHT22;12020;51.384;6.908;2023-04-01T09:44:30;10.70;99.90
23685;DHT22;12020;51.384;6.908;2023-04-01T09:47:28;10.70;99.90
23685;DHT22;12020;51.384;6.908;2023-04-01T09:58:44;10.80;99.90
23685;DHT22;12020;51.384;6.908;2023-04-01T10:16:08;10.90;99.90
23685;DHT22;12020;51.384;6.908;2023-04-01T10:18:44;10.90;99.90
23685;DHT22;12020;51.384;6.908;2023-04-01T10:21:53;10.90;99.90
23685;DHT22;12020;51.384;6.908;2023-04-01T10:39:20;11.00;99.90
23685;DHT22;12020;51.384;6.908;2023-04-01T10:50:24;10.90;99.90
23685;DHT22;12020;51.384;6.908;2023-04-01T10:53:46;10.90;99.90
23685;DHT22;12020;51.384;6.908;2023-04-01T11:01:42;10.90;99.90
23685;DHT22;12020;51.384;6.908;2023-04-01T11:12:48;11.00;99.90
23685;DHT22;12020;51.384;6.908;2023-04-01T11:21:02;11.00;99.90
23685;DHT22;12020;51.384;6.908;2023-04-01T11:31:46;10.90;99.90
23685;DHT22;12020;51.384;6.908;2023-04-01T11:34:35;10.90;99.90
23685;DHT22;12020;51.384;6.908;2023-04-01T11:37:50;10.90;99.90
23685;DHT22;12020;51.384;6.908;2023-04-01T11:40:26;11.00;99.90
23685;DHT22;12020;51.384;6.908;2023-04-01T11:45:45;10.90;99.90
23685;DHT22;12020;51.384;6.908;2023-04-01T11:48:57;10.90;99.90
23685;DHT22;12020;51.384;6.908;2023-04-01T11:52:20;10.90;99.90
23685;DHT22;12020;51.384;6.908;2023-04-01T12:03:10;11.00;99.90
23685;DHT22;12020;51.384;6.908;2023-04-01T12:06:05;11.00;99.90
23685;DHT22;12020;51.384;6.908;2023-04-01T12:09:12;11.00;99.90
23685;DHT22;12020;51.384;6.908;2023-04-01T12:22:49;11.20;99.90
23685;DHT22;12020;51.384;6.908;2023-04-01T12:39:11;11.20;99.90
23685;DHT22;12020;51.384;6.908;2023-04-01T12:41:59;11.30;99.90
23685;DHT22;12020;51.384;6.908;2023-04-01T12:47:48;11.30;99.90
23685;DHT22;12020;51.384;6.908;2023-04-01T12:56:02;11.30;99.90
23685;DHT22;12020;51.384;6.908;2023-04-01T13:01:17;11.30;99.90
23685;DHT22;12020;51.384;6.908;2023-04-01T13:12:20;11.40;99.90
23685;DHT22;12020;51.384;6.908;2023-04-01T13:20:44;11.30;99.90
23685;DHT22;12020;51.384;6.908;2023-04-01T13:26:09;11.30;99.90
23685;DHT22;12020;51.384;6.908;2023-04-01T13:31:55;11.30;99.90
23685;DHT22;12020;51.384;6.908;2023-04-01T13:40:25;11.30;99.90
23685;DHT22;12020;51.384;6.908;2023-04-01T13:42:59;11.50;99.90
23685;DHT22;12020;51.384;6.908;2023-04-01T14:08:20;12.50;99.90
23685;DHT22;12020;51.384;6.908;2023-04-01T14:11:14;12.50;99.90
23685;DHT22;12020;51.384;6.908;2023-04-01T14:27:48;11.70;99.90
23685;DHT22;12020;51.384;6.908;2023-04-01T14:41:47;11.40;99.90
23685;DHT22;12020;51.384;6.908;2023-04-01T14:49:47;11.30;99.90
23685;DHT22;12020;51.384;6.908;2023-04-01T14:54:46;11.30;99.90
23685;DHT22;12020;51.384;6.908;2023-04-01T14:57:32;11.40;99.90
23685;DHT22;12020;51.384;6.908;2023-04-01T15:08:14;11.60;99.90
23685;DHT22;12020;51.384;6.908;2023-04-01T15:24:25;11.70;99.90
23685;DHT22;12020;51.384;6.908;2023-04-01T15:27:13;11.60;99.90
23685;DHT22;12020;51.384;6.908;2023-04-01T15:38:40;11.40;99.90
23685;DHT22;12020;51.384;6.908;2023-04-01T15:41:24;11.40;99.90
23685;DHT22;12020;51.384;6.908;2023-04-01T15:43:53;11.40;99.90
23685;DHT22;12020;51.384;6.908;2023-04-01T15:46:48;11.30;99.90
23685;DHT22;12020;51.384;6.908;2023-04-01T15:49:42;11.30;99.90
23685;DHT22;12020;51.384;6.908;2023-04-01T15:55:16;11.30;99.90
23685;DHT22;12020;51.384;6.908;2023-04-01T15:58:27;11.30;99.90
23685;DHT22;12020;51.384;6.908;2023-04-01T16:20:34;11.20;99.90
23685;DHT22;12020;51.384;6.908;2023-04-01T16:25:54;11.20;99.90
23685;DHT22;12020;51.384;6.908;2023-04-01T16:28:32;11.20;99.90
23685;DHT22;12020;51.384;6.908;2023-04-01T16:34:03;11.30;99.90
23685;DHT22;12020;51.384;6.908;2023-04-01T16:36:42;11.60;99.90
23685;DHT22;12020;51.384;6.908;2023-04-01T16:42:25;11.60;99.90
23685;DHT22;12020;51.384;6.908;2023-04-01T16:47:40;11.50;99.90
23685;DHT22;12020;51.384;6.908;2023-04-01T16:50:25;11.40;99.90
23685;DHT22;12020;51.384;6.908;2023-04-01T16:53:02;11.40;99.90
23685;DHT22;12020;51.384;6.908;2023-04-01T16:58:40;11.30;99.90
23685;DHT22;12020;51.384;6.908;2023-04-01T17:01:24;11.20;99.90
23685;DHT22;12020;51.384;6.908;2023-04-01T17:03:58;11.20;99.90
23685;DHT22;12020;51.384;6.908;2023-04-01T17:06:35;11.20;99.90
23685;DHT22;12020;51.384;6.908;2023-04-01T17:09:07;11.20;99.90
23685;DHT22;12020;51.384;6.908;2023-04-01T17:17:18;11.10;99.90
23685;DHT22;12020;51.384;6.908;2023-04-01T17:19:55;11.10;99.90
23685;DHT22;12020;51.384;6.908;2023-04-01T17:30:57;11.00;99.90
23685;DHT22;12020;51.384;6.908;2023-04-01T17:33:49;11.10;99.90
23685;DHT22;12020;51.384;6.908;2023-04-01T17:44:39;11.00;99.90
23685;DHT22;12020;51.384;6.908;2023-04-01T17:47:39;11.00;99.90
23685;DHT22;12020;51.384;6.908;2023-04-01T18:06:17;11.00;99.90
23685;DHT22;12020;51.384;6.908;2023-04-01T18:14:18;11.00;99.90
23685;DHT22;12020;51.384;6.908;2023-04-01T18:19:47;11.00;99.90
23685;DHT22;12020;51.384;6.908;2023-04-01T18:22:32;11.00;99.90
23685;DHT22;12020;51.384;6.908;2023-04-01T18:28:11;10.90;99.90
23685;DHT22;12020;51.384;6.908;2023-04-01T18:30:39;11.00;99.90
23685;DHT22;12020;51.384;6.908;2023-04-01T18:38:47;11.00;99.90
23685;DHT22;12020;51.384;6.908;2023-04-01T18:41:40;10.90;99.90
23685;DHT22;12020;51.384;6.908;2023-04-01T18:44:49;11.00;99.90
23685;DHT22;12020;51.384;6.908;2023-04-01T18:49:55;11.00;99.90
23685;DHT22;12020;51.384;6.908;2023-04-01T18:52:43;11.00;99.90
23685;DHT22;12020;51.384;6.908;2023-04-01T18:58:06;11.00;99.90
23685;DHT22;12020;51.384;6.908;2023-04-01T19:01:00;11.00;99.90
23685;DHT22;12020;51.384;6.908;2023-04-01T19:03:55;11.00;99.90
23685;DHT22;12020;51.384;6.908;2023-04-01T19:06:29;11.00;99.90
23685;DHT22;12020;51.384;6.908;2023-04-01T19:09:10;11.00;99.90
23685;DHT22;12020;51.384;6.908;2023-04-01T19:14:59;11.00;99.90
23685;DHT22;12020;51.384;6.908;2023-04-01T19:23:47;11.00;99.90
23685;DHT22;12020;51.384;6.908;2023-04-01T19:25:55;11.00;99.90
23685;DHT22;12020;51.384;6.908;2023-04-01T19:31:46;11.00;99.90
23685;DHT22;12020;51.384;6.908;2023-04-01T19:37:08;10.90;99.90
23685;DHT22;12020;51.384;6.908;2023-04-01T19:42:37;10.90;99.90
23685;DHT22;12020;51.384;6.908;2023-04-01T19:48:00;10.90;99.90
23685;DHT22;12020;51.384;6.908;2023-04-01T19:51:02;10.90;99.90
23685;DHT22;12020;51.384;6.908;2023-04-01T19:56:12;10.80;99.90
23685;DHT22;12020;51.384;6.908;2023-04-01T20:01:36;10.70;99.90
23685;DHT22;12020;51.384;6.908;2023-04-01T20:04:15;10.70;99.90
23685;DHT22;12020;51.384;6.908;2023-04-01T20:09:50;10.80;99.90
23685;DHT22;12020;51.384;6.908;2023-04-01T20:15:37;10.70;99.90
23685;DHT22;12020;51.384;6.908;2023-04-01T20:23:55;10.60;99.90
23685;DHT22;12020;51.384;6.908;2023-04-01T20:26:27;10.60;99.90
23685;DHT22;12020;51.384;6.908;2023-04-01T20:29:18;10.60;99.90
23685;DHT22;12020;51.384;6.908;2023-04-01T20:31:59;10.60;99.90
23685;DHT22;12020;51.384;6.908;2023-04-01T20:37:35;10.50;99.90
23685;DHT22;12020;51.384;6.908;2023-04-01T20:40:33;10.50;99.90
23685;DHT22;12020;51.384;6.908;2023-04-01T20:48:55;10.50;99.90
23685;DHT22;12020;51.384;6.908;2023-04-01T20:51:26;10.50;99.90
23685;DHT22;12020;51.384;6.908;2023-04-01T20:57:31;10.30;99.90
23685;DHT22;12020;51.384;6.908;2023-04-01T21:13:56;10.10;99.90
23685;DHT22;12020;51.384;6.908;2023-04-01T21:49:40;9.50;99.90
23685;DHT22;12020;51.384;6.908;2023-04-01T21:52:38;9.40;99.90
23685;DHT22;12020;51.384;6.908;2023-04-01T22:06:37;9.20;99.90
23685;DHT22;12020;51.384;6.908;2023-04-01T22:17:31;9.20;99.90
23685;DHT22;12020;51.384;6.908;2023-04-01T22:20:27;9.20;99.90
23685;DHT22;12020;51.384;6.908;2023-04-01T22:25:53;9.20;99.90
23685;DHT22;12020;51.384;6.908;2023-04-01T22:28:32;9.10;99.90
23685;DHT22;12020;51.384;6.908;2023-04-01T22:31:02;9.10;99.90
23685;DHT22;12020;51.384;6.908;2023-04-01T22:33:41;9.10;99.90
23685;DHT22;12020;51.384;6.908;2023-04-01T22:36:26;9.10;99.90
23685;DHT22;12020;51.384;6.908;2023-04-01T22:44:28;8.90;99.90
23685;DHT22;12020;51.384;6.908;2023-04-01T22:50:36;8.90;99.90
23685;DHT22;12020;51.384;6.908;2023-04-01T22:56:11;8.90;99.90
23685;DHT22;12020;51.384;6.908;2023-04-01T22:59:08;8.80;99.90
23685;DHT22;12020;51.384;6.908;2023-04-01T23:01:38;8.80;99.90
23685;DHT22;12020;51.384;6.908;2023-04-01T23:04:07;8.80;99.90
23685;DHT22;12020;51.384;6.908;2023-04-01T23:06:41;8.80;99.90
23685;DHT22;12020;51.384;6.908;2023-04-01T23:11:55;8.70;99.90
23685;DHT22;12020;51.384;6.908;2023-04-01T23:19:47;8.50;99.90
23685;DHT22;12020;51.384;6.908;2023-04-01T23:22:33;8.50;99.90
23685;DHT22;12020;51.384;6.908;2023-04-01T23:28:05;8.40;99.90
23685;DHT22;12020;51.384;6.908;2023-04-01T23:33:10;8.30;99.90
23685;DHT22;12020;51.384;6.908;2023-04-01T23:35:56;8.30;99.90
23685;DHT22;12020;51.384;6.908;2023-04-01T23:38:35;8.30;99.90
23685;DHT22;12020;51.384;6.908;2023-04-01T23:41:04;8.30;99.90
23685;DHT22;12020;51.384;6.908;2023-04-01T23:43:43;8.20;99.90
23685;DHT22;12020;51.384;6.908;2023-04-01T23:46:12;8.20;99.90
23685;DHT22;12020;51.384;6.908;2023-04-01T23:48:41;8.10;99.90
23685;DHT22;12020;51.384;6.908;2023-04-01T23:51:26;8.10;99.90
23685;DHT22;12020;51.384;6.908;2023-04-01T23:54:42;8.00;99.90
23685;DHT22;12020;51.384;6.908;2023-04-01T23:56:54;8.00;99.90
23685;DHT22;12020;51.384;6.908;2023-04-01T23:59:30;8.00;99.90
